createdAt,value
2022-11-04T00:01:48.355Z,12.33
2022-11-04T00:04:19.588Z,12.43
2022-11-04T00:06:49.160Z,12.51
2022-11-04T00:09:21.241Z,12.56
2022-11-04T00:12:07.429Z,12.60
2022-11-04T00:14:39.044Z,12.65
2022-11-04T00:17:22.972Z,12.71
2022-11-04T00:20:10.077Z,12.57
2022-11-04T00:22:56.837Z,12.48
2022-11-04T00:25:44.355Z,12.44
2022-11-04T00:28:31.855Z,12.47
2022-11-04T00:31:22.630Z,12.39
2022-11-04T00:33:51.633Z,12.11
2022-11-04T00:36:21.847Z,12.35
2022-11-04T00:38:50.181Z,12.29
2022-11-04T00:41:30.984Z,11.83
2022-11-04T00:44:01.698Z,12.14
2022-11-04T00:46:31.510Z,11.86
2022-11-04T00:49:01.482Z,12.18
2022-11-04T00:51:29.957Z,12.08
2022-11-04T00:53:59.801Z,12.12
2022-11-04T00:56:29.245Z,12.25
2022-11-04T00:58:57.362Z,12.15
2022-11-04T01:01:28.045Z,12.22
2022-11-04T01:03:57.348Z,12.21
2022-11-04T01:06:28.349Z,12.12
2022-11-04T01:08:57.746Z,11.99
2022-11-04T01:11:26.219Z,11.70
2022-11-04T01:13:56.392Z,11.52
2022-11-04T01:16:25.929Z,11.72
2022-11-04T01:18:54.048Z,11.87
2022-11-04T01:21:22.490Z,11.66
2022-11-04T01:23:51.370Z,11.72
2022-11-04T01:26:23.474Z,11.65
2022-11-04T01:28:54.969Z,11.60
2022-11-04T01:31:26.701Z,11.51
2022-11-04T01:33:56.635Z,11.45
2022-11-04T01:36:25.830Z,11.34
2022-11-04T01:38:56.102Z,11.34
2022-11-04T01:41:26.684Z,11.20
2022-11-04T01:43:56.669Z,11.09
2022-11-04T01:46:34.026Z,11.15
2022-11-04T01:49:08.233Z,11.10
2022-11-04T01:51:40.357Z,11.06
2022-11-04T01:54:11.200Z,11.02
2022-11-04T01:56:41.224Z,10.97
2022-11-04T01:59:22.158Z,10.91
2022-11-04T02:01:52.267Z,10.82
2022-11-04T02:04:27.279Z,10.78
2022-11-04T02:06:58.294Z,10.73
2022-11-04T02:09:32.096Z,10.65
2022-11-04T02:12:18.203Z,10.73
2022-11-04T02:14:48.200Z,10.79
2022-11-04T02:17:34.656Z,10.83
2022-11-04T02:20:30.519Z,10.71
2022-11-04T02:23:26.191Z,10.87
2022-11-04T02:26:15.035Z,10.85
2022-11-04T02:29:16.653Z,10.79
2022-11-04T02:31:55.250Z,10.46
2022-11-04T02:34:32.629Z,10.58
2022-11-04T02:37:11.198Z,10.49
2022-11-04T02:39:52.368Z,10.44
2022-11-04T02:42:31.695Z,10.40
2022-11-04T02:45:12.257Z,10.14
2022-11-04T02:47:45.551Z,10.35
2022-11-04T02:50:18.786Z,10.41
2022-11-04T02:52:55.971Z,10.43
2022-11-04T02:55:27.968Z,10.39
2022-11-04T02:58:00.586Z,10.33
2022-11-04T03:00:30.962Z,10.35
2022-11-04T03:03:03.862Z,10.15
2022-11-04T03:05:37.760Z,9.93
2022-11-04T03:08:10.800Z,10.39
2022-11-04T03:10:44.452Z,10.27
2022-11-04T03:13:15.786Z,10.23
2022-11-04T03:15:50.261Z,10.28
2022-11-04T03:18:28.296Z,9.94
2022-11-04T03:21:00.043Z,10.06
2022-11-04T03:23:29.247Z,9.99
2022-11-04T03:26:04.190Z,10.05
2022-11-04T03:28:43.819Z,10.04
2022-11-04T03:31:20.547Z,9.99
2022-11-04T03:33:52.317Z,9.99
2022-11-04T03:36:23.393Z,10.06
2022-11-04T03:38:53.988Z,9.89
2022-11-04T03:41:36.621Z,10.04
2022-11-04T03:44:05.657Z,9.87
2022-11-04T03:46:36.447Z,9.91
2022-11-04T03:49:08.969Z,9.53
2022-11-04T03:51:37.527Z,9.84
2022-11-04T03:54:06.642Z,9.63
2022-11-04T03:57:02.210Z,9.83
2022-11-04T03:59:51.695Z,9.75
2022-11-04T04:02:24.663Z,9.73
2022-11-04T04:05:00.451Z,9.69
2022-11-04T04:07:34.859Z,9.59
2022-11-04T04:10:29.614Z,9.57
2022-11-04T04:13:01.895Z,9.13
2022-11-04T04:15:37.883Z,9.50
2022-11-04T04:18:12.631Z,9.49
2022-11-04T04:20:47.328Z,9.48
2022-11-04T04:23:37.187Z,9.58
2022-11-04T04:26:26.756Z,9.48
2022-11-04T04:28:56.896Z,9.36
2022-11-04T04:31:44.398Z,9.37
2022-11-04T04:34:13.180Z,9.09
2022-11-04T04:36:47.693Z,9.30
2022-11-04T04:39:40.637Z,9.35
2022-11-04T04:42:27.203Z,9.29
2022-11-04T04:45:02.067Z,9.22
2022-11-04T04:47:45.213Z,9.14
2022-11-04T04:50:15.652Z,9.00
2022-11-04T04:52:49.847Z,9.16
2022-11-04T04:55:19.386Z,9.14
2022-11-04T04:57:47.528Z,9.15
2022-11-04T05:00:18.240Z,9.13
2022-11-04T05:02:47.113Z,9.01
2022-11-04T05:05:17.263Z,9.06
2022-11-04T05:07:47.065Z,9.09
2022-11-04T05:10:17.500Z,9.03
2022-11-04T05:13:03.695Z,9.07
2022-11-04T05:15:33.801Z,9.07
2022-11-04T05:18:03.618Z,8.80
2022-11-04T05:20:34.377Z,9.04
2022-11-04T05:23:04.078Z,9.20
2022-11-04T05:25:32.844Z,9.16
2022-11-04T05:28:05.375Z,9.26
2022-11-04T05:30:34.074Z,9.24
2022-11-04T05:33:04.915Z,9.40
2022-11-04T05:35:34.228Z,9.32
2022-11-04T05:38:04.534Z,9.47
2022-11-04T05:40:32.749Z,9.41
2022-11-04T05:43:02.224Z,9.67
2022-11-04T05:45:31.144Z,9.74
2022-11-04T05:48:00.948Z,9.30
2022-11-04T05:50:30.135Z,9.92
2022-11-04T05:52:59.028Z,9.90
2022-11-04T05:55:30.811Z,10.01
2022-11-04T05:57:59.944Z,9.96
2022-11-04T06:00:28.775Z,10.02
2022-11-04T06:02:58.656Z,10.02
2022-11-04T06:05:28.188Z,10.00
2022-11-04T06:07:57.979Z,10.06
2022-11-04T06:10:27.002Z,10.09
2022-11-04T06:12:56.984Z,10.10
2022-11-04T06:15:25.603Z,10.06
2022-11-04T06:17:53.862Z,10.11
2022-11-04T06:20:25.454Z,10.17
2022-11-04T06:22:54.074Z,10.20
2022-11-04T06:25:22.412Z,10.10
2022-11-04T06:27:50.500Z,10.17
2022-11-04T06:30:20.549Z,10.18
2022-11-04T06:32:49.469Z,10.36
2022-11-04T06:35:18.254Z,10.53
2022-11-04T06:37:49.209Z,10.56
2022-11-04T06:40:17.740Z,10.59
2022-11-04T06:42:46.774Z,10.69
2022-11-04T06:45:14.823Z,10.79
2022-11-04T06:47:44.390Z,10.91
2022-11-04T06:50:15.721Z,10.97
2022-11-04T06:52:44.333Z,11.18
2022-11-04T06:55:12.574Z,11.29
2022-11-04T06:57:40.913Z,11.24
2022-11-04T07:00:10.399Z,11.32
2022-11-04T07:02:39.349Z,11.41
2022-11-04T07:05:10.414Z,11.49
2022-11-04T07:07:38.903Z,11.64
2022-11-04T07:10:08.317Z,11.62
2022-11-04T07:12:38.389Z,11.68
2022-11-04T07:15:07.353Z,11.70
2022-11-04T07:17:39.675Z,11.69
2022-11-04T07:20:13.543Z,11.71
2022-11-04T07:22:41.880Z,11.69
2022-11-04T07:25:11.122Z,12.02
2022-11-04T07:27:40.400Z,12.14
2022-11-04T07:30:10.223Z,12.26
2022-11-04T07:32:38.278Z,12.52
2022-11-04T07:35:09.091Z,12.57
2022-11-04T07:37:36.972Z,12.67
2022-11-04T07:40:06.067Z,12.88
2022-11-04T07:42:36.376Z,12.93
2022-11-04T07:45:04.812Z,13.12
2022-11-04T07:47:33.227Z,12.97
2022-11-04T07:50:10.587Z,13.23
2022-11-04T07:52:40.846Z,13.38
2022-11-04T07:55:14.316Z,13.38
2022-11-04T07:57:42.888Z,13.33
2022-11-04T08:00:13.448Z,13.23
2022-11-04T08:02:42.314Z,13.34
2022-11-04T08:05:10.805Z,13.47
2022-11-04T08:07:41.228Z,13.69
2022-11-04T08:10:11.250Z,13.71
2022-11-04T08:12:39.456Z,13.95
2022-11-04T08:15:09.153Z,14.18
2022-11-04T08:17:37.797Z,14.22
2022-11-04T08:20:08.958Z,14.34
2022-11-04T08:22:38.107Z,14.33
2022-11-04T08:25:13.690Z,14.23
2022-11-04T08:27:43.420Z,14.22
2022-11-04T08:30:12.486Z,14.41
2022-11-04T08:32:40.536Z,14.53
2022-11-04T08:35:12.327Z,14.80
2022-11-04T08:37:41.990Z,14.91
2022-11-04T08:40:12.659Z,14.85
2022-11-04T08:42:40.840Z,15.10
2022-11-04T08:45:11.079Z,15.20
2022-11-04T08:47:42.739Z,14.73
2022-11-04T08:50:11.651Z,15.55
2022-11-04T08:52:40.352Z,15.53
2022-11-04T08:55:10.640Z,15.68
2022-11-04T08:57:40.258Z,15.69
2022-11-04T09:00:09.858Z,15.85
2022-11-04T09:02:39.352Z,15.79
2022-11-04T09:05:08.958Z,15.41
2022-11-04T09:07:39.038Z,15.57
2022-11-04T09:10:08.414Z,15.51
2022-11-04T09:12:36.609Z,16.10
2022-11-04T09:15:07.521Z,16.18
2022-11-04T09:17:36.067Z,16.25
2022-11-04T09:20:05.469Z,16.36
2022-11-04T09:22:33.841Z,16.55
2022-11-04T09:25:02.890Z,16.73
2022-11-04T09:27:32.114Z,16.61
2022-11-04T09:30:00.097Z,16.61
2022-11-04T09:32:29.896Z,16.45
2022-11-04T09:34:58.478Z,16.42
2022-11-04T09:37:26.980Z,16.34
2022-11-04T09:39:55.730Z,16.15
2022-11-04T09:42:44.947Z,16.24
2022-11-04T09:45:21.495Z,16.46
2022-11-04T09:48:02.534Z,16.49
2022-11-04T09:50:37.510Z,16.34
2022-11-04T09:53:10.578Z,16.42
2022-11-04T09:55:49.180Z,16.60
2022-11-04T09:58:17.836Z,16.72
2022-11-04T10:00:56.714Z,16.74
2022-11-04T10:03:55.056Z,16.84
2022-11-04T10:06:38.279Z,16.71
2022-11-04T10:09:22.249Z,17.32
2022-11-04T10:12:03.468Z,16.99
2022-11-04T10:14:49.989Z,17.24
2022-11-04T10:17:31.871Z,17.52
2022-11-04T10:20:20.848Z,17.70
2022-11-04T10:22:59.459Z,17.23
2022-11-04T10:25:32.178Z,17.41
2022-11-04T10:28:01.459Z,17.56
2022-11-04T10:30:32.193Z,17.70
2022-11-04T10:33:07.680Z,17.59
2022-11-04T10:35:42.604Z,17.71
2022-11-04T10:38:23.161Z,17.58
2022-11-04T10:40:53.808Z,17.39
2022-11-04T10:43:31.229Z,17.32
2022-11-04T10:46:13.481Z,17.42
2022-11-04T10:48:51.371Z,17.47
2022-11-04T10:51:22.471Z,17.67
2022-11-04T10:53:56.878Z,17.64
2022-11-04T10:56:37.290Z,17.82
2022-11-04T10:59:20.889Z,18.16
2022-11-04T11:01:55.040Z,18.36
2022-11-04T11:04:29.707Z,18.48
2022-11-04T11:07:01.804Z,18.53
2022-11-04T11:09:31.823Z,18.64
2022-11-04T11:12:23.304Z,18.78
2022-11-04T11:14:54.174Z,18.86
2022-11-04T11:17:25.260Z,18.93
2022-11-04T11:19:59.688Z,19.15
2022-11-04T11:22:38.079Z,19.21
2022-11-04T11:25:29.766Z,18.92
2022-11-04T11:28:01.019Z,18.83
2022-11-04T11:30:34.030Z,18.92
2022-11-04T11:33:05.117Z,19.04
2022-11-04T11:35:41.625Z,19.28
2022-11-04T11:38:21.157Z,18.93
2022-11-04T11:41:22.816Z,19.18
2022-11-04T11:43:48.445Z,19.43
2022-11-04T11:46:24.465Z,19.61
2022-11-04T11:48:53.927Z,19.68
2022-11-04T11:51:31.716Z,19.40
2022-11-04T11:54:16.798Z,19.44
2022-11-04T12:02:41.249Z,19.54
2022-11-04T12:11:16.537Z,19.33
2022-11-04T12:13:51.089Z,19.70
2022-11-04T12:16:34.679Z,19.72
2022-11-04T12:19:27.162Z,19.76
2022-11-04T12:22:03.794Z,19.80
2022-11-04T12:24:43.334Z,19.79
2022-11-04T12:27:22.960Z,19.49
2022-11-04T12:30:10.576Z,19.55
2022-11-04T12:32:53.533Z,19.59
2022-11-04T12:35:38.414Z,19.61
2022-11-04T12:38:34.001Z,19.80
2022-11-04T12:44:10.997Z,19.34
2022-11-04T12:46:47.568Z,19.59
2022-11-04T12:49:37.322Z,19.68
2022-11-04T12:52:15.525Z,19.74
2022-11-04T12:55:06.134Z,19.70
2022-11-04T12:57:48.028Z,19.70
2022-11-04T13:00:22.050Z,19.55
2022-11-04T13:02:53.649Z,19.72
2022-11-04T13:05:38.220Z,19.58
2022-11-04T13:08:14.814Z,19.49
2022-11-04T13:10:49.875Z,19.40
2022-11-04T13:13:23.021Z,19.40
2022-11-04T13:15:59.237Z,19.40
2022-11-04T13:18:32.298Z,19.26
2022-11-04T13:21:05.773Z,19.32
2022-11-04T13:23:40.822Z,19.21
2022-11-04T13:26:14.177Z,19.48
2022-11-04T13:28:44.505Z,19.49
2022-11-04T13:31:24.142Z,19.19
2022-11-04T13:33:57.113Z,19.32
2022-11-04T13:36:34.643Z,19.39
2022-11-04T13:39:10.044Z,19.46
2022-11-04T13:41:56.818Z,19.54
2022-11-04T13:44:29.805Z,19.55
2022-11-04T13:47:03.908Z,19.48
2022-11-04T13:49:34.559Z,19.39
2022-11-04T13:52:10.480Z,19.33
2022-11-04T13:54:43.085Z,19.29
2022-11-04T13:57:16.098Z,19.16
2022-11-04T14:00:06.383Z,19.13
2022-11-04T14:02:51.172Z,19.00
2022-11-04T14:06:08.546Z,18.90
2022-11-04T14:08:37.363Z,19.08
2022-11-04T14:11:12.619Z,19.06
2022-11-04T14:13:48.443Z,19.09
2022-11-04T14:16:45.286Z,18.89
2022-11-04T14:19:56.746Z,18.74
2022-11-04T14:22:35.541Z,18.61
2022-11-04T14:25:24.945Z,18.40
2022-11-04T14:27:55.614Z,18.25
2022-11-04T14:30:46.988Z,18.17
2022-11-04T14:33:26.771Z,17.75
2022-11-04T14:35:56.652Z,17.99
2022-11-04T14:38:31.066Z,18.00
2022-11-04T14:41:23.863Z,17.93
2022-11-04T14:43:55.915Z,18.12
2022-11-04T14:46:28.116Z,17.84
2022-11-04T14:48:58.098Z,17.36
2022-11-04T14:51:30.403Z,17.68
2022-11-04T14:54:09.452Z,17.63
2022-11-04T14:56:38.835Z,17.66
2022-11-04T14:59:08.822Z,17.80
2022-11-04T15:01:40.092Z,17.67
2022-11-04T15:04:28.724Z,17.62
2022-11-04T15:06:58.664Z,17.45
2022-11-04T15:09:31.059Z,17.32
2022-11-04T15:12:25.179Z,17.12
2022-11-04T15:14:53.857Z,16.98
2022-11-04T15:17:25.075Z,16.88
2022-11-04T15:19:56.676Z,16.90
2022-11-04T15:22:25.456Z,16.78
2022-11-04T15:24:55.064Z,16.63
2022-11-04T15:27:29.986Z,16.49
2022-11-04T15:30:00.918Z,16.38
2022-11-04T15:32:29.074Z,16.34
2022-11-04T15:34:59.945Z,16.26
2022-11-04T15:37:29.666Z,16.16
2022-11-04T15:40:00.429Z,16.14
2022-11-04T15:42:45.165Z,16.17
2022-11-04T15:45:32.078Z,16.06
2022-11-04T15:48:25.801Z,16.08
2022-11-04T15:51:10.424Z,15.91
2022-11-04T15:53:50.048Z,15.72
2022-11-04T15:56:26.133Z,15.54
2022-11-04T15:58:55.866Z,15.46
2022-11-04T16:01:24.142Z,14.94
2022-11-04T16:03:55.174Z,15.17
2022-11-04T16:06:38.673Z,15.08
2022-11-04T16:09:21.294Z,14.96
2022-11-04T16:12:27.189Z,14.92
2022-11-04T16:14:56.439Z,14.81
2022-11-04T16:17:26.721Z,14.76
2022-11-04T16:19:57.339Z,14.71
2022-11-04T16:22:30.010Z,14.57
2022-11-04T16:24:59.589Z,14.46
2022-11-04T16:27:32.173Z,14.47
2022-11-04T16:30:08.205Z,14.52
2022-11-04T16:32:42.742Z,14.79
2022-11-04T16:35:18.372Z,14.69
2022-11-04T16:37:46.543Z,14.61
2022-11-04T16:40:15.927Z,14.58
2022-11-04T16:42:46.873Z,14.53
2022-11-04T16:45:30.290Z,14.58
2022-11-04T16:47:58.972Z,14.65
2022-11-04T16:50:28.117Z,14.62
2022-11-04T16:52:56.613Z,14.49
2022-11-04T16:55:26.393Z,14.76
2022-11-04T16:58:01.736Z,14.50
2022-11-04T17:00:33.392Z,14.43
2022-11-04T17:03:02.489Z,14.07
2022-11-04T17:05:31.826Z,14.32
2022-11-04T17:08:04.820Z,14.35
2022-11-04T17:10:38.291Z,14.25
2022-11-04T17:13:09.346Z,14.21
2022-11-04T17:15:37.946Z,14.15
2022-11-04T17:18:06.517Z,14.07
2022-11-04T17:20:34.918Z,14.03
2022-11-04T17:23:03.383Z,13.99
2022-11-04T17:25:31.959Z,13.93
2022-11-04T17:28:00.116Z,13.79
2022-11-04T17:30:29.803Z,13.88
2022-11-04T17:32:58.351Z,13.78
2022-11-04T17:35:26.505Z,13.93
2022-11-04T17:37:56.129Z,14.02
2022-11-04T17:40:25.033Z,14.04
2022-11-04T17:43:12.568Z,13.94
2022-11-04T17:45:42.907Z,14.07
2022-11-04T17:48:14.475Z,14.04
2022-11-04T17:50:43.472Z,14.06
2022-11-04T17:53:11.814Z,14.16
2022-11-04T17:55:42.062Z,14.21
2022-11-04T17:58:12.320Z,14.02
2022-11-04T18:00:40.888Z,13.93
2022-11-04T18:03:12.724Z,13.97
2022-11-04T18:05:41.558Z,14.00
2022-11-04T18:08:09.599Z,14.00
2022-11-04T18:10:38.351Z,13.89
2022-11-04T18:13:08.637Z,13.99
2022-11-04T18:15:37.419Z,14.00
2022-11-04T18:18:05.601Z,13.82
2022-11-04T18:20:47.391Z,13.86
2022-11-04T18:23:15.664Z,14.07
2022-11-04T18:25:49.607Z,14.02
2022-11-04T18:28:19.000Z,13.95
2022-11-04T18:30:46.951Z,13.97
2022-11-04T18:33:15.581Z,13.85
2022-11-04T18:35:45.536Z,13.95
2022-11-04T18:38:13.408Z,13.96
2022-11-04T18:40:41.473Z,13.98
2022-11-04T18:43:10.977Z,13.99
2022-11-04T18:45:39.669Z,13.81
2022-11-04T18:48:08.752Z,13.17
2022-11-04T18:50:37.190Z,13.96
2022-11-04T18:53:07.898Z,13.79
2022-11-04T18:55:36.734Z,13.70
2022-11-04T18:58:05.196Z,13.62
2022-11-04T19:00:33.591Z,13.64
2022-11-04T19:03:04.124Z,13.75
2022-11-04T19:05:32.208Z,13.75
2022-11-04T19:08:00.964Z,13.65
2022-11-04T19:10:30.507Z,13.60
2022-11-04T19:13:15.846Z,13.50
2022-11-04T19:15:44.288Z,13.43
2022-11-04T19:18:12.440Z,13.41
2022-11-04T19:20:40.446Z,13.38
2022-11-04T19:23:08.755Z,13.38
2022-11-04T19:25:42.533Z,13.26
2022-11-04T19:28:34.530Z,13.12
2022-11-04T19:31:02.435Z,13.11
2022-11-04T19:33:31.574Z,12.75
2022-11-04T19:36:00.095Z,13.04
2022-11-04T19:38:28.320Z,13.05
2022-11-04T19:41:05.847Z,13.10
2022-11-04T19:43:33.163Z,13.18
2022-11-04T19:46:04.938Z,13.24
2022-11-04T19:48:37.005Z,13.20
2022-11-04T19:51:05.152Z,13.38
2022-11-04T19:53:33.252Z,13.33
2022-11-04T19:56:02.767Z,13.28
2022-11-04T19:58:30.753Z,12.91
2022-11-04T20:01:04.806Z,13.11
2022-11-04T20:03:32.849Z,13.00
2022-11-04T20:06:01.629Z,13.14
2022-11-04T20:08:29.892Z,13.20
2022-11-04T20:11:02.763Z,13.12
2022-11-04T20:13:49.115Z,13.31
2022-11-04T20:16:19.559Z,13.29
2022-11-04T20:18:50.852Z,13.26
2022-11-04T20:21:21.120Z,13.22
2022-11-04T20:23:50.095Z,13.33
2022-11-04T20:26:20.996Z,13.24
2022-11-04T20:28:50.901Z,13.40
2022-11-04T20:31:20.953Z,13.49
2022-11-04T20:33:50.042Z,13.51
2022-11-04T20:36:20.671Z,13.46
2022-11-04T20:38:48.799Z,13.30
2022-11-04T20:41:19.989Z,13.40
2022-11-04T20:43:50.419Z,13.35
2022-11-04T20:46:20.479Z,13.40
2022-11-04T20:48:50.438Z,13.39
2022-11-04T20:51:21.892Z,13.04
2022-11-04T20:53:56.045Z,13.20
2022-11-04T20:56:26.326Z,13.20
2022-11-04T20:58:59.470Z,12.92
2022-11-04T21:01:35.688Z,13.10
2022-11-04T21:04:07.715Z,13.22
2022-11-04T21:06:39.085Z,13.01
2022-11-04T21:09:09.937Z,13.18
2022-11-04T21:11:42.416Z,13.35
2022-11-04T21:14:14.074Z,13.45
2022-11-04T21:16:42.143Z,13.31
2022-11-04T21:19:13.471Z,13.45
2022-11-04T21:21:43.280Z,13.15
2022-11-04T21:24:14.636Z,13.28
2022-11-04T21:26:43.929Z,13.31
2022-11-04T21:29:15.540Z,12.90
2022-11-04T21:31:44.374Z,12.60
2022-11-04T21:34:13.398Z,12.76
2022-11-04T21:36:43.204Z,13.18
2022-11-04T21:39:13.155Z,13.12
2022-11-04T21:41:41.254Z,13.13
2022-11-04T21:44:11.974Z,13.06
2022-11-04T21:46:42.714Z,12.55
2022-11-04T21:49:14.203Z,13.09
2022-11-04T21:51:42.862Z,13.30
2022-11-04T21:54:12.698Z,13.13
2022-11-04T21:56:41.149Z,13.16
2022-11-04T21:59:17.906Z,13.25
2022-11-04T22:01:48.283Z,13.19
2022-11-04T22:04:16.754Z,13.29
2022-11-04T22:06:45.617Z,13.29
2022-11-04T22:09:14.604Z,13.25
2022-11-04T22:11:44.197Z,13.39
2022-11-04T22:14:14.098Z,13.28
2022-11-04T22:16:42.361Z,12.97
2022-11-04T22:19:14.770Z,13.30
2022-11-04T22:21:45.033Z,13.10
2022-11-04T22:24:15.871Z,13.23
2022-11-04T22:26:44.291Z,13.33
2022-11-04T22:29:12.770Z,13.24
2022-11-04T22:31:43.339Z,13.40
2022-11-04T22:34:17.463Z,13.17
2022-11-04T22:36:46.088Z,13.16
2022-11-04T22:39:16.684Z,12.74
2022-11-04T22:41:46.697Z,12.96
2022-11-04T22:44:15.192Z,12.73
2022-11-04T22:46:43.698Z,12.63
2022-11-04T22:49:15.140Z,12.70
2022-11-04T22:51:43.189Z,12.59
2022-11-04T22:54:12.613Z,12.46
2022-11-04T22:56:40.917Z,12.36
2022-11-04T22:59:09.143Z,12.09
2022-11-04T23:01:37.945Z,12.39
2022-11-04T23:04:06.754Z,12.22
2022-11-04T23:06:36.927Z,12.40
2022-11-04T23:09:06.110Z,12.44
2022-11-04T23:11:52.218Z,11.89
2022-11-04T23:14:40.050Z,12.26
2022-11-04T23:17:33.889Z,12.30
2022-11-04T23:20:02.987Z,12.38
2022-11-04T23:22:50.599Z,12.44
2022-11-04T23:25:19.287Z,12.54
2022-11-04T23:28:06.738Z,12.50
2022-11-04T23:30:37.196Z,12.55
2022-11-04T23:33:07.346Z,12.49
2022-11-04T23:35:55.605Z,12.48
2022-11-04T23:38:26.167Z,12.60
2022-11-04T23:41:15.654Z,12.52
2022-11-04T23:43:44.379Z,12.56
2022-11-04T23:46:29.828Z,12.64
2022-11-04T23:49:15.552Z,12.54
2022-11-04T23:52:01.364Z,12.73
2022-11-04T23:54:48.836Z,12.65
2022-11-04T23:57:36.219Z,12.51
